Time,TemperatureF,DewpointF,PressureIn,WindDirection,WindDirectionDegrees,WindSpeedMPH,WindSpeedGustMPH,Humidity,HourlyPrecipIn,Conditions,Clouds,dailyrainin,SoftwareType,DateUTC
2013-07-03 00:12:00,74.9,71.0,30.19,SSE,166,0.0,3.0,88,0.00,,,0.42,weatherlink.com 1.10,2013-07-03 04:12:00,
2013-07-03 00:27:00,74.8,71.0,30.19,South,175,0.0,3.0,89,0.00,,,0.00,weatherlink.com 1.10,2013-07-03 04:27:00,
2013-07-03 00:42:00,74.7,71.0,30.19,South,190,1.0,2.0,88,0.00,,,0.00,weatherlink.com 1.10,2013-07-03 04:42:00,
2013-07-03 00:57:00,74.8,71.0,30.19,SSE,165,2.0,2.0,89,0.00,,,0.00,weatherlink.com 1.10,2013-07-03 04:57:00,
2013-07-03 01:12:00,74.9,72.0,30.19,South,182,0.0,3.0,90,0.00,,,0.00,weatherlink.com 1.10,2013-07-03 05:12:00,
2013-07-03 01:27:00,75.1,72.0,30.19,South,185,0.0,2.0,91,0.00,,,0.00,weatherlink.com 1.10,2013-07-03 05:27:00,
2013-07-03 01:42:00,75.1,72.0,30.19,SSW,206,0.0,3.0,91,0.00,,,0.00,weatherlink.com 1.10,2013-07-03 05:42:00,
2013-07-03 02:12:00,75.2,73.0,30.18,SSW,196,0.0,1.0,92,0.00,,,0.00,weatherlink.com 1.10,2013-07-03 06:12:00,
2013-07-03 02:57:00,75.1,73.0,30.17,SSW,198,0.0,3.0,92,0.00,,,0.00,weatherlink.com 1.10,2013-07-03 06:57:00,
2013-07-03 03:12:00,75.0,73.0,30.17,SW,236,0.0,2.0,92,0.00,,,0.00,weatherlink.com 1.10,2013-07-03 07:12:00,
2013-07-03 03:27:00,74.9,73.0,30.17,SSW,210,0.0,4.0,92,0.00,,,0.00,weatherlink.com 1.10,2013-07-03 07:27:00,
2013-07-03 03:42:00,74.8,72.0,30.17,SW,214,0.0,3.0,92,0.00,,,0.00,weatherlink.com 1.10,2013-07-03 07:42:00,
2013-07-03 04:12:00,74.9,72.0,30.18,SSW,203,0.0,2.0,89,0.00,,,0.00,weatherlink.com 1.10,2013-07-03 08:12:00,
2013-07-03 04:27:00,75.2,72.0,30.18,SSW,202,0.0,3.0,89,0.00,,,0.00,weatherlink.com 1.10,2013-07-03 08:27:00,
2013-07-03 04:42:00,75.4,72.0,30.18,SSW,196,0.0,3.0,89,0.00,,,0.00,weatherlink.com 1.10,2013-07-03 08:42:00,
2013-07-03 04:57:00,75.4,72.0,30.18,South,187,0.0,2.0,90,0.00,,,0.00,weatherlink.com 1.10,2013-07-03 08:57:00,
2013-07-03 05:27:00,75.5,73.0,30.19,South,173,1.0,2.0,91,0.00,,,0.00,weatherlink.com 1.10,2013-07-03 09:27:00,
2013-07-03 06:12:00,75.5,73.0,30.19,South,191,0.0,2.0,92,0.00,,,0.00,weatherlink.com 1.10,2013-07-03 10:12:00,
2013-07-03 06:28:00,75.6,73.0,30.19,South,191,0.0,3.0,92,0.00,,,0.00,weatherlink.com 1.10,2013-07-03 10:28:00,
2013-07-03 06:43:00,75.7,74.0,30.19,ESE,117,0.0,1.0,93,0.00,,,0.00,weatherlink.com 1.10,2013-07-03 10:43:00,
2013-07-03 06:58:00,75.7,74.0,30.20,ESE,117,0.0,1.0,93,0.00,,,0.00,weatherlink.com 1.10,2013-07-03 10:58:00,
2013-07-03 07:13:00,75.8,74.0,30.21,South,181,2.0,5.0,93,0.00,,,0.00,weatherlink.com 1.10,2013-07-03 11:13:00,
2013-07-03 07:28:00,75.9,74.0,30.21,South,186,0.0,5.0,92,0.00,,,0.00,weatherlink.com 1.10,2013-07-03 11:28:00,
2013-07-03 07:58:00,76.0,73.0,30.22,SSW,200,0.0,3.0,90,0.00,,,0.00,weatherlink.com 1.10,2013-07-03 11:58:00,
2013-07-03 08:13:00,76.2,73.0,30.23,ESE,107,0.0,4.0,90,0.00,,,0.00,weatherlink.com 1.10,2013-07-03 12:13:00,
2013-07-03 08:28:00,76.4,73.0,30.23,SSE,163,1.0,4.0,90,0.00,,,0.00,weatherlink.com 1.10,2013-07-03 12:28:00,
2013-07-03 08:43:00,76.7,74.0,30.23,SSW,194,2.0,2.0,90,0.00,,,0.00,weatherlink.com 1.10,2013-07-03 12:43:00,
2013-07-03 08:58:00,77.5,74.0,30.23,South,186,0.0,3.0,88,0.00,,,0.00,weatherlink.com 1.10,2013-07-03 12:58:00,
2013-07-03 09:13:00,77.9,74.0,30.23,SSE,161,0.0,2.0,87,0.00,,,0.00,weatherlink.com 1.10,2013-07-03 13:13:00,
2013-07-03 09:28:00,77.9,74.0,30.23,SE,143,2.0,3.0,86,0.00,,,0.00,weatherlink.com 1.10,2013-07-03 13:28:00,
2013-07-03 09:43:00,77.8,74.0,30.23,SSW,208,0.0,3.0,87,0.00,,,0.00,weatherlink.com 1.10,2013-07-03 13:43:00,
2013-07-03 09:58:00,78.0,74.0,30.24,SSE,163,0.0,3.0,87,0.00,,,0.00,weatherlink.com 1.10,2013-07-03 13:58:00,
2013-07-03 10:13:00,78.7,74.0,30.24,South,179,0.0,3.0,86,0.00,,,0.00,weatherlink.com 1.10,2013-07-03 14:13:00,
2013-07-03 10:28:00,79.9,75.0,30.24,SSW,203,0.0,2.0,85,0.00,,,0.00,weatherlink.com 1.10,2013-07-03 14:28:00,
2013-07-03 11:28:00,81.5,76.0,30.23,SSE,160,3.0,7.0,82,0.00,,,0.00,weatherlink.com 1.10,2013-07-03 15:28:00,
2013-07-03 11:43:00,82.6,76.0,30.23,South,169,1.0,3.0,81,0.00,,,0.00,weatherlink.com 1.10,2013-07-03 15:43:00,
2013-07-03 11:58:00,81.3,76.0,30.22,SSE,164,1.0,4.0,84,0.00,,,0.00,weatherlink.com 1.10,2013-07-03 15:58:00,
2013-07-03 12:13:00,82.5,76.0,30.23,South,175,2.0,5.0,80,0.00,,,0.00,weatherlink.com 1.10,2013-07-03 16:13:00,
2013-07-03 12:43:00,83.4,76.0,30.22,South,171,2.0,5.0,77,0.00,,,0.00,weatherlink.com 1.10,2013-07-03 16:43:00,
2013-07-03 12:58:00,84.0,76.0,30.22,East,101,1.0,4.0,76,0.00,,,0.00,weatherlink.com 1.10,2013-07-03 16:58:00,
2013-07-03 13:13:00,84.5,75.0,30.22,SE,143,0.0,7.0,74,0.00,,,0.00,weatherlink.com 1.10,2013-07-03 17:13:00,
2013-07-03 13:28:00,84.0,75.0,30.21,SE,138,1.0,3.0,75,0.00,,,0.00,weatherlink.com 1.10,2013-07-03 17:28:00,
2013-07-03 13:58:00,85.3,76.0,30.20,South,172,2.0,5.0,74,0.00,,,0.00,weatherlink.com 1.10,2013-07-03 17:58:00,
2013-07-03 14:13:00,85.6,76.0,30.20,South,175,4.0,4.0,73,0.00,,,0.00,weatherlink.com 1.10,2013-07-03 18:13:00,
2013-07-03 14:28:00,85.9,76.0,30.20,SSE,148,1.0,5.0,73,0.00,,,0.00,weatherlink.com 1.10,2013-07-03 18:28:00,
2013-07-03 14:59:00,86.3,76.0,30.19,South,184,1.0,4.0,71,0.00,,,0.00,weatherlink.com 1.10,2013-07-03 18:59:00,
2013-07-03 15:29:00,86.4,76.0,30.20,SSW,199,1.0,6.0,72,0.00,,,0.00,weatherlink.com 1.10,2013-07-03 19:29:00,
2013-07-03 15:44:00,86.2,76.0,30.19,South,177,0.0,6.0,71,0.00,,,0.00,weatherlink.com 1.10,2013-07-03 19:44:00,
2013-07-03 15:59:00,86.0,76.0,30.19,SE,126,0.0,5.0,72,0.00,,,0.00,weatherlink.com 1.10,2013-07-03 19:59:00,
2013-07-03 16:14:00,84.1,75.0,30.19,South,179,1.0,5.0,74,0.00,,,0.00,weatherlink.com 1.10,2013-07-03 20:14:00,
2013-07-03 16:29:00,83.1,75.0,30.19,SSW,207,1.0,3.0,77,0.00,,,0.00,weatherlink.com 1.10,2013-07-03 20:29:00,
2013-07-03 16:44:00,83.3,76.0,30.18,SSW,201,1.0,3.0,78,0.00,,,0.00,weatherlink.com 1.10,2013-07-03 20:44:00,
2013-07-03 16:59:00,83.6,76.0,30.19,SSW,213,2.0,5.0,78,0.00,,,0.00,weatherlink.com 1.10,2013-07-03 20:59:00,
2013-07-03 17:14:00,83.6,75.0,30.19,SE,136,0.0,4.0,76,0.00,,,0.00,weatherlink.com 1.10,2013-07-03 21:14:00,
2013-07-03 17:29:00,82.9,76.0,30.18,SSW,196,0.0,3.0,79,0.00,,,0.00,weatherlink.com 1.10,2013-07-03 21:29:00,
2013-07-03 17:44:00,81.4,76.0,30.18,ESE,119,0.0,2.0,83,0.00,,,0.00,weatherlink.com 1.10,2013-07-03 21:44:00,
2013-07-03 17:59:00,81.3,77.0,30.19,ESE,119,1.0,2.0,85,0.00,,,0.00,weatherlink.com 1.10,2013-07-03 21:59:00,
2013-07-03 18:14:00,81.3,77.0,30.19,SSW,192,1.0,3.0,85,0.00,,,0.00,weatherlink.com 1.10,2013-07-03 22:14:00,
2013-07-03 18:44:00,80.2,75.0,30.20,SE,134,1.0,4.0,85,0.00,,,0.00,weatherlink.com 1.10,2013-07-03 22:44:00,
2013-07-03 18:59:00,79.4,75.0,30.21,SSE,153,1.0,5.0,86,0.00,,,0.00,weatherlink.com 1.10,2013-07-03 22:59:00,
2013-07-03 19:14:00,78.7,75.0,30.20,South,184,0.0,4.0,89,0.01,,,0.01,weatherlink.com 1.10,2013-07-03 23:14:00,
2013-07-03 19:29:00,78.1,75.0,30.20,SSE,151,0.0,1.0,89,0.01,,,0.01,weatherlink.com 1.10,2013-07-03 23:29:00,
2013-07-03 19:44:00,77.4,75.0,30.20,ENE,62,0.0,2.0,91,0.02,,,0.02,weatherlink.com 1.10,2013-07-03 23:44:00,
2013-07-03 20:14:00,77.3,76.0,30.20,East,86,0.0,2.0,94,0.02,,,0.03,weatherlink.com 1.10,2013-07-04 00:14:00,
2013-07-03 20:29:00,77.0,75.0,30.20,South,171,0.0,1.0,93,0.02,,,0.03,weatherlink.com 1.10,2013-07-04 00:29:00,
2013-07-03 20:59:00,76.4,75.0,30.20,South,171,0.0,0.0,94,0.00,,,0.03,weatherlink.com 1.10,2013-07-04 00:59:00,
2013-07-03 21:14:00,76.4,75.0,30.21,South,171,0.0,0.0,94,0.00,,,0.03,weatherlink.com 1.10,2013-07-04 01:14:00,
2013-07-03 21:29:00,75.9,74.0,30.22,South,171,0.0,1.0,93,0.00,,,0.03,weatherlink.com 1.10,2013-07-04 01:29:00,
2013-07-03 22:14:00,75.3,73.0,30.23,South,171,0.0,0.0,93,0.00,,,0.03,weatherlink.com 1.10,2013-07-04 02:14:00,
2013-07-03 22:44:00,75.2,73.0,30.23,South,171,0.0,0.0,93,0.00,,,0.03,weatherlink.com 1.10,2013-07-04 02:44:00,
2013-07-03 22:59:00,75.5,73.0,30.23,South,171,0.0,0.0,92,0.00,,,0.03,weatherlink.com 1.10,2013-07-04 02:59:00,
2013-07-03 23:29:00,75.5,73.0,30.24,South,171,0.0,0.0,92,0.00,,,0.03,weatherlink.com 1.10,2013-07-04 03:29:00,
2013-07-03 23:44:00,75.6,73.0,30.24,South,171,0.0,0.0,92,0.00,,,0.03,weatherlink.com 1.10,2013-07-04 03:44:00,
2013-07-03 23:59:00,75.6,74.0,30.24,South,171,0.0,0.0,93,0.00,,,0.03,weatherlink.com 1.10,2013-07-04 03:59:00,